createdAt,value
2017-11-09T00:00:00.139Z,96.6
2017-11-09T00:01:00.115Z,96.84
2017-11-09T00:01:59.774Z,96.79
2017-11-09T00:03:00.091Z,96.5
2017-11-09T00:04:00.082Z,96.5
2017-11-09T00:05:00.067Z,96.31
2017-11-09T00:06:00.078Z,96.6
2017-11-09T00:07:00.045Z,96.41
2017-11-09T00:08:00.041Z,96.5
2017-11-09T00:09:00.025Z,96.89
2017-11-09T00:10:00.025Z,96.03
2017-11-09T00:11:00.009Z,96.36
2017-11-09T00:11:59.998Z,96.22
2017-11-09T00:12:59.986Z,96.26
2017-11-09T00:13:59.657Z,96.03
2017-11-09T00:14:59.963Z,96.22
2017-11-09T00:15:59.956Z,96.65
2017-11-09T00:16:59.945Z,96.41
2017-11-09T00:17:59.933Z,96.41
2017-11-09T00:18:59.604Z,96.6
2017-11-09T00:19:59.911Z,96.26
2017-11-09T00:20:59.900Z,96.31
2017-11-09T00:21:59.566Z,96.36
2017-11-09T00:22:59.883Z,96.03
2017-11-09T00:23:59.546Z,96.22
2017-11-09T00:24:59.861Z,96.36
2017-11-09T00:25:59.848Z,96.36
2017-11-09T00:26:59.840Z,96.22
2017-11-09T00:27:59.829Z,95.98
2017-11-09T00:28:59.822Z,96.31
2017-11-09T00:29:59.809Z,96.41
2017-11-09T00:30:59.472Z,95.94
2017-11-09T00:31:59.787Z,96.41
2017-11-09T00:32:59.798Z,96.22
2017-11-09T00:33:59.772Z,96.22
2017-11-09T00:34:59.759Z,96.36
2017-11-09T00:35:59.756Z,96.31
2017-11-09T00:36:59.741Z,96.31
2017-11-09T00:37:59.723Z,96.41
2017-11-09T00:38:59.712Z,96.26
2017-11-09T00:39:59.717Z,96.22
2017-11-09T00:40:59.711Z,96.22
2017-11-09T00:41:59.690Z,96.98
2017-11-09T00:42:59.678Z,96.98
2017-11-09T00:43:59.333Z,96.79
2017-11-09T00:44:59.652Z,96.6
2017-11-09T00:45:59.646Z,96.79
2017-11-09T00:46:59.302Z,96.94
2017-11-09T00:47:59.616Z,96.98
2017-11-09T00:48:59.611Z,96.41
2017-11-09T00:49:59.603Z,96.79
2017-11-09T00:50:59.269Z,96.22
2017-11-09T00:51:59.576Z,96.31
2017-11-09T00:52:59.238Z,96.03
2017-11-09T00:53:59.552Z,96.31
2017-11-09T00:54:59.544Z,96.03
2017-11-09T00:55:59.533Z,96.12
2017-11-09T00:56:59.523Z,96.31
2017-11-09T00:57:59.189Z,96.36
2017-11-09T00:58:59.509Z,96.17
2017-11-09T00:59:59.165Z,96.36
2017-11-09T01:00:59.157Z,95.79
2017-11-09T01:01:59.512Z,95.98
2017-11-09T01:02:59.462Z,96.17
2017-11-09T01:03:59.449Z,95.89
2017-11-09T01:04:59.437Z,96.08
2017-11-09T01:05:59.443Z,95.89
2017-11-09T01:06:59.421Z,95.89
2017-11-09T01:07:59.405Z,95.56
2017-11-09T01:08:59.397Z,95.65
2017-11-09T01:09:59.393Z,96.03
2017-11-09T01:10:59.376Z,95.94
2017-11-09T01:11:59.368Z,95.89
2017-11-09T01:12:59.357Z,96.12
2017-11-09T01:13:59.343Z,96.5
2017-11-09T01:14:59.342Z,96.55
2017-11-09T01:15:59.325Z,95.94
2017-11-09T01:16:59.312Z,95.84
2017-11-09T01:17:58.977Z,95.94
2017-11-09T01:18:59.289Z,95.94
2017-11-09T01:19:59.281Z,95.84
2017-11-09T01:20:58.945Z,95.94
2017-11-09T01:21:59.272Z,95.94
2017-11-09T01:22:59.250Z,96.6
2017-11-09T01:23:59.253Z,96.5
2017-11-09T01:24:59.230Z,95.84
2017-11-09T01:25:59.218Z,96.5
2017-11-09T01:26:59.217Z,96.22
2017-11-09T01:27:59.209Z,96.79
2017-11-09T01:28:59.190Z,96.22
2017-11-09T01:29:59.179Z,96.89
2017-11-09T01:30:59.167Z,96.69
2017-11-09T01:31:58.829Z,96.69
2017-11-09T01:32:59.141Z,96.6
2017-11-09T01:33:59.141Z,96.98
2017-11-09T01:34:58.795Z,96.03
2017-11-09T01:35:59.129Z,96.5
2017-11-09T01:36:59.100Z,96.41
2017-11-09T01:37:59.097Z,96.41
2017-11-09T01:38:59.084Z,96.5
2017-11-09T01:39:59.071Z,96.79
2017-11-09T01:40:59.066Z,97.08
2017-11-09T01:41:58.722Z,97.08
2017-11-09T01:42:59.040Z,96.79
2017-11-09T01:43:59.027Z,96.98
2017-11-09T01:44:59.015Z,96.03
2017-11-09T01:45:59.026Z,96.41
2017-11-09T01:46:58.992Z,97.17
2017-11-09T01:47:58.983Z,96.79
2017-11-09T01:48:58.976Z,96.79
2017-11-09T01:49:58.960Z,96.6
2017-11-09T01:50:58.953Z,96.98
2017-11-09T01:51:59.190Z,96.79
2017-11-09T01:52:58.942Z,97.08
2017-11-09T01:53:58.920Z,96.79
2017-11-09T01:54:58.909Z,96.6
2017-11-09T01:55:58.571Z,97.08
2017-11-09T01:56:58.894Z,96.6
2017-11-09T01:57:58.875Z,96.6
2017-11-09T01:58:58.538Z,96.79
2017-11-09T01:59:58.860Z,96.03
2017-11-09T02:00:58.858Z,96.22
2017-11-09T02:01:58.837Z,96.41
2017-11-09T02:02:58.830Z,96.22
2017-11-09T02:03:58.815Z,96.41
2017-11-09T02:04:58.801Z,96.03
2017-11-09T02:05:58.464Z,96.6
2017-11-09T02:06:58.784Z,96.03
2017-11-09T02:07:58.770Z,96.5
2017-11-09T02:08:58.757Z,96.89
2017-11-09T02:09:58.748Z,96.03
2017-11-09T02:10:58.736Z,97.08
2017-11-09T02:11:58.725Z,96.89
2017-11-09T02:12:58.719Z,97.08
2017-11-09T02:13:58.707Z,96.98
2017-11-09T02:14:58.697Z,96.89
2017-11-09T02:15:58.694Z,97.08
2017-11-09T02:16:58.670Z,96.31
2017-11-09T02:17:58.335Z,96.31
2017-11-09T02:18:58.654Z,96.5
2017-11-09T02:19:58.642Z,96.5
2017-11-09T02:20:58.644Z,96.79
2017-11-09T02:21:58.618Z,96.89
2017-11-09T02:22:58.531Z,96.79
2017-11-09T02:23:58.288Z,96.89
2017-11-09T02:24:58.598Z,96.98
2017-11-09T02:25:58.251Z,96.5
2017-11-09T02:26:58.565Z,96.6
2017-11-09T02:27:58.554Z,96.6
2017-11-09T02:28:58.540Z,96.6
2017-11-09T02:29:58.535Z,96.6
2017-11-09T02:30:58.525Z,96.79
2017-11-09T02:31:58.512Z,96.22
2017-11-09T02:32:58.501Z,96.31
2017-11-09T02:33:58.168Z,96.31
2017-11-09T02:34:58.491Z,96.03
2017-11-09T02:35:58.477Z,96.31
2017-11-09T02:36:58.132Z,96.41
2017-11-09T02:37:58.450Z,96.41
2017-11-09T02:38:58.438Z,96.31
2017-11-09T02:39:58.430Z,96.12
2017-11-09T02:40:58.417Z,96.22
2017-11-09T02:41:58.407Z,96.79
2017-11-09T02:42:58.412Z,96.6
2017-11-09T02:43:58.386Z,96.31
2017-11-09T02:44:58.393Z,96.03
2017-11-09T02:45:58.369Z,96.22
2017-11-09T02:46:58.359Z,96.22
2017-11-09T02:47:58.345Z,96.22
2017-11-09T02:48:58.007Z,96.31
2017-11-09T02:49:58.321Z,96.6
2017-11-09T02:50:57.991Z,96.41
2017-11-09T02:51:58.300Z,96.12
2017-11-09T02:52:58.293Z,96.22
2017-11-09T02:53:58.529Z,96.31
2017-11-09T02:54:58.284Z,95.84
2017-11-09T02:55:58.256Z,95.94
2017-11-09T02:56:58.252Z,96.22
2017-11-09T02:57:58.249Z,96.31
2017-11-09T02:58:58.227Z,96.03
2017-11-09T02:59:58.216Z,96.5
2017-11-09T03:00:58.206Z,96.03
2017-11-09T03:01:58.196Z,96.41
2017-11-09T03:02:58.182Z,96.6
2017-11-09T03:03:58.171Z,96.98
2017-11-09T03:04:58.158Z,96.98
2017-11-09T03:05:58.149Z,96.98
2017-11-09T03:06:58.140Z,96.89
2017-11-09T03:07:57.804Z,96.89
2017-11-09T03:08:58.117Z,96.89
2017-11-09T03:09:58.105Z,96.79
2017-11-09T03:10:58.098Z,96.79
2017-11-09T03:11:58.086Z,96.69
2017-11-09T03:12:57.751Z,97.08
2017-11-09T03:13:57.737Z,96.6
2017-11-09T03:14:58.057Z,96.79
2017-11-09T03:15:57.722Z,96.6
2017-11-09T03:16:58.034Z,96.79
2017-11-09T03:17:58.018Z,96.89
2017-11-09T03:18:57.685Z,96.6
2017-11-09T03:19:57.998Z,96.6
2017-11-09T03:20:57.986Z,96.98
2017-11-09T03:21:57.987Z,97.17
2017-11-09T03:22:57.966Z,97.27
2017-11-09T03:23:57.955Z,97.08
2017-11-09T03:24:57.944Z,96.6
2017-11-09T03:25:57.620Z,96.79
2017-11-09T03:26:57.937Z,96.89
2017-11-09T03:27:57.911Z,96.98
2017-11-09T03:28:57.906Z,96.98
2017-11-09T03:29:57.902Z,97.08
2017-11-09T03:30:57.891Z,96.98
2017-11-09T03:31:57.869Z,96.5
2017-11-09T03:32:57.863Z,96.6
2017-11-09T03:33:57.865Z,96.08
2017-11-09T03:34:57.843Z,96.6
2017-11-09T03:35:57.506Z,96.03
2017-11-09T03:36:57.817Z,96.22
2017-11-09T03:37:57.811Z,96.46
2017-11-09T03:38:57.799Z,96.79
2017-11-09T03:39:57.789Z,96.98
2017-11-09T03:40:57.783Z,96.41
2017-11-09T03:41:57.768Z,96.03
2017-11-09T03:42:57.756Z,96.79
2017-11-09T03:43:57.747Z,96.89
2017-11-09T03:44:57.409Z,96.79
2017-11-09T03:45:57.731Z,96.89
2017-11-09T03:46:57.715Z,96.22
2017-11-09T03:47:57.705Z,96.22
2017-11-09T03:48:57.368Z,96.36
2017-11-09T03:49:57.689Z,96.55
2017-11-09T03:50:57.671Z,96.36
2017-11-09T03:51:57.667Z,96.36
2017-11-09T03:52:57.663Z,96.17
2017-11-09T03:53:57.638Z,96.36
2017-11-09T03:54:57.628Z,96.46
2017-11-09T03:55:57.620Z,95.98
2017-11-09T03:56:57.605Z,96.55
2017-11-09T03:57:57.272Z,95.98
2017-11-09T03:58:57.609Z,95.89
2017-11-09T03:59:57.578Z,95.79
2017-11-09T04:00:57.570Z,95.7
2017-11-09T04:01:57.555Z,95.79
2017-11-09T04:02:57.547Z,95.51
2017-11-09T04:03:57.538Z,95.51
2017-11-09T04:04:57.533Z,95.98
2017-11-09T04:05:57.518Z,95.84
2017-11-09T04:06:57.501Z,96.6
2017-11-09T04:07:57.496Z,96.41
2017-11-09T04:08:57.158Z,95.94
2017-11-09T04:09:57.477Z,96.98
2017-11-09T04:10:57.468Z,96.31
2017-11-09T04:11:57.453Z,96.22
2017-11-09T04:12:57.442Z,96.41
2017-11-09T04:13:57.433Z,96.31
2017-11-09T04:14:57.429Z,96.41
2017-11-09T04:15:57.087Z,96.89
2017-11-09T04:16:57.401Z,96.84
2017-11-09T04:17:57.386Z,96.17
2017-11-09T04:18:57.388Z,96.46
2017-11-09T04:19:57.371Z,96.17
2017-11-09T04:20:57.364Z,96.17
2017-11-09T04:21:57.346Z,96.36
2017-11-09T04:22:57.012Z,96.17
2017-11-09T04:23:57.330Z,96.46
2017-11-09T04:24:57.317Z,96.55
2017-11-09T04:25:56.981Z,96.46
2017-11-09T04:26:57.293Z,96.26
2017-11-09T04:27:57.285Z,96.36
2017-11-09T04:28:56.951Z,96.26
2017-11-09T04:29:57.263Z,96.26
2017-11-09T04:30:57.253Z,96.55
2017-11-09T04:31:57.255Z,96.36
2017-11-09T04:32:57.235Z,96.36
2017-11-09T04:33:57.224Z,96.36
2017-11-09T04:34:57.213Z,96.65
2017-11-09T04:35:57.200Z,96.65
2017-11-09T04:36:57.192Z,95.98
2017-11-09T04:37:57.192Z,95.89
2017-11-09T04:38:57.195Z,95.89
2017-11-09T04:39:57.161Z,96.26
2017-11-09T04:40:57.148Z,95.98
2017-11-09T04:41:57.140Z,95.98
2017-11-09T04:42:57.137Z,95.6
2017-11-09T04:43:57.122Z,95.89
2017-11-09T04:44:57.111Z,95.79
2017-11-09T04:45:57.099Z,95.89
2017-11-09T04:46:57.090Z,95.7
2017-11-09T04:47:57.082Z,95.89
2017-11-09T04:48:57.069Z,95.89
2017-11-09T04:49:56.736Z,95.79
2017-11-09T04:50:57.049Z,95.7
2017-11-09T04:51:57.044Z,95.6
2017-11-09T04:52:57.030Z,95.7
2017-11-09T04:53:57.039Z,95.6
2017-11-09T04:54:57.016Z,95.6
2017-11-09T04:55:56.995Z,95.6
2017-11-09T04:56:56.988Z,95.94
2017-11-09T04:57:56.979Z,95.51
2017-11-09T04:58:57.223Z,96.03
2017-11-09T04:59:56.957Z,95.75
2017-11-09T05:00:56.951Z,96.6
2017-11-09T05:01:56.939Z,96.03
2017-11-09T05:02:56.946Z,96.6
2017-11-09T05:03:56.918Z,96.41
2017-11-09T05:04:56.919Z,96.36
2017-11-09T05:05:56.899Z,95.98
2017-11-09T05:06:56.885Z,95.98
2017-11-09T05:07:56.878Z,96.03
2017-11-09T05:08:56.869Z,96.03
2017-11-09T05:09:56.858Z,95.56
2017-11-09T05:10:56.851Z,95.94
2017-11-09T05:11:56.835Z,95.94
2017-11-09T05:12:56.827Z,95.65
2017-11-09T05:13:56.819Z,95.94
2017-11-09T05:14:56.488Z,95.65
2017-11-09T05:15:56.809Z,95.17
2017-11-09T05:16:56.790Z,94.98
2017-11-09T05:17:56.774Z,95.08
2017-11-09T05:18:56.767Z,95.08
2017-11-09T05:19:56.764Z,95.17
2017-11-09T05:20:56.755Z,95.17
2017-11-09T05:21:56.743Z,95.08
2017-11-09T05:22:56.733Z,95.17
2017-11-09T05:23:56.724Z,95.08
2017-11-09T05:24:56.718Z,95.08
2017-11-09T05:25:56.699Z,95.08
2017-11-09T05:26:56.686Z,95.08
2017-11-09T05:27:56.688Z,95.08
2017-11-09T05:28:56.344Z,95.17
2017-11-09T05:29:56.906Z,95.08
2017-11-09T05:30:56.647Z,95.17
2017-11-09T05:31:56.637Z,95.08
2017-11-09T05:32:56.301Z,95.08
2017-11-09T05:33:56.618Z,95.08
2017-11-09T05:34:56.609Z,95.17
2017-11-09T05:35:56.601Z,95.08
2017-11-09T05:36:56.587Z,94.98
2017-11-09T05:37:56.579Z,95.08
2017-11-09T05:38:56.566Z,95.17
2017-11-09T05:39:56.230Z,95.08
2017-11-09T05:40:56.223Z,95.27
2017-11-09T05:41:56.536Z,95.27
2017-11-09T05:42:56.534Z,94.98
2017-11-09T05:43:56.517Z,95.46
2017-11-09T05:44:56.521Z,95.36
2017-11-09T05:45:56.501Z,95.08
2017-11-09T05:46:56.498Z,95.46
2017-11-09T05:47:56.474Z,95.36
2017-11-09T05:48:56.469Z,95.17
2017-11-09T05:49:56.137Z,96.03
2017-11-09T05:50:56.445Z,95.17
2017-11-09T05:51:56.437Z,95.08
2017-11-09T05:52:56.104Z,95.17
2017-11-09T05:53:56.090Z,95.46
2017-11-09T05:54:56.414Z,95.17
2017-11-09T05:55:56.396Z,95.17
2017-11-09T05:56:56.389Z,95.08
2017-11-09T05:57:56.388Z,95.27
2017-11-09T05:58:56.368Z,95.17
2017-11-09T05:59:56.372Z,94.98
2017-11-09T06:00:56.021Z,94.98
2017-11-09T06:01:56.337Z,94.98
2017-11-09T06:02:56.328Z,94.98
2017-11-09T06:03:56.315Z,95.17
2017-11-09T06:04:56.305Z,94.98
2017-11-09T06:05:55.972Z,94.89
2017-11-09T06:06:56.287Z,95.27
2017-11-09T06:07:55.950Z,95.17
2017-11-09T06:08:56.267Z,95.08
2017-11-09T06:09:56.261Z,95.27
2017-11-09T06:10:56.247Z,95.08
2017-11-09T06:11:56.243Z,95.17
2017-11-09T06:12:56.239Z,95.08
2017-11-09T06:13:56.217Z,95.08
2017-11-09T06:14:55.880Z,95.17
2017-11-09T06:15:56.195Z,94.51
2017-11-09T06:16:56.187Z,94.89
2017-11-09T06:17:55.853Z,94.6
2017-11-09T06:18:56.170Z,94.79
2017-11-09T06:19:56.160Z,94.7
2017-11-09T06:20:56.167Z,94.42
2017-11-09T06:21:56.148Z,95.17
2017-11-09T06:22:56.126Z,95.17
2017-11-09T06:23:56.119Z,95.27
2017-11-09T06:24:56.116Z,95.36
2017-11-09T06:25:56.097Z,95.56
2017-11-09T06:26:56.085Z,95.27
2017-11-09T06:27:56.075Z,95.08
2017-11-09T06:28:56.088Z,95.27
2017-11-09T06:29:56.057Z,95.27
2017-11-09T06:30:56.058Z,95.27
2017-11-09T06:31:56.048Z,94.79
2017-11-09T06:32:56.034Z,94.98
2017-11-09T06:33:56.020Z,95.08
2017-11-09T06:34:56.007Z,95.17
2017-11-09T06:35:55.676Z,96.03
2017-11-09T06:36:55.986Z,95.79
2017-11-09T06:37:55.986Z,95.84
2017-11-09T06:38:55.644Z,96.03
2017-11-09T06:39:55.971Z,96.03
2017-11-09T06:40:55.947Z,95.65
2017-11-09T06:41:55.947Z,95.84
2017-11-09T06:42:55.605Z,95.65
2017-11-09T06:43:55.925Z,95.84
2017-11-09T06:44:55.918Z,95.65
2017-11-09T06:45:55.572Z,96.12
2017-11-09T06:46:55.885Z,95.84
2017-11-09T06:47:55.882Z,95.75
2017-11-09T06:48:55.867Z,95.94
2017-11-09T06:49:55.870Z,95.75
2017-11-09T06:50:55.849Z,95.84
2017-11-09T06:51:55.883Z,95.56
2017-11-09T06:52:55.861Z,95.84
2017-11-09T06:53:55.850Z,95.75
2017-11-09T06:54:55.808Z,95.75
2017-11-09T06:55:55.806Z,95.56
2017-11-09T06:56:55.791Z,96.03
2017-11-09T06:57:55.778Z,95.84
2017-11-09T06:58:55.791Z,95.84
2017-11-09T06:59:55.760Z,95.65
2017-11-09T07:00:55.752Z,95.65
2017-11-09T07:01:55.741Z,95.65
2017-11-09T07:02:55.407Z,96.03
2017-11-09T07:03:55.718Z,95.17
2017-11-09T07:04:55.705Z,95.27
2017-11-09T07:05:55.696Z,95.27
2017-11-09T07:06:55.702Z,94.79
2017-11-09T07:07:55.680Z,95.27
2017-11-09T07:08:55.677Z,95.27
2017-11-09T07:09:55.662Z,95.08
2017-11-09T07:10:55.645Z,94.98
2017-11-09T07:11:55.638Z,95.27
2017-11-09T07:12:55.636Z,94.89
2017-11-09T07:13:55.627Z,95.17
2017-11-09T07:14:55.612Z,95.17
2017-11-09T07:15:55.600Z,95.27
2017-11-09T07:16:55.268Z,94.79
2017-11-09T07:17:55.583Z,94.6
2017-11-09T07:18:55.247Z,94.65
2017-11-09T07:19:55.591Z,94.32
2017-11-09T07:20:55.551Z,94.42
2017-11-09T07:21:55.562Z,94.42
2017-11-09T07:22:55.537Z,94.6
2017-11-09T07:23:55.196Z,94.7
2017-11-09T07:24:55.526Z,94.79
2017-11-09T07:25:55.509Z,94.79
2017-11-09T07:26:55.501Z,94.89
2017-11-09T07:27:55.482Z,94.98
2017-11-09T07:28:55.147Z,94.98
2017-11-09T07:29:55.469Z,94.46
2017-11-09T07:30:55.461Z,94.79
2017-11-09T07:31:55.458Z,94.74
2017-11-09T07:32:55.444Z,94.65
2017-11-09T07:33:55.421Z,94.56
2017-11-09T07:34:55.415Z,94.65
2017-11-09T07:35:55.408Z,93.89
2017-11-09T07:36:55.404Z,93.98
2017-11-09T07:37:55.389Z,94.27
2017-11-09T07:38:55.052Z,94.56
2017-11-09T07:39:55.368Z,93.98
2017-11-09T07:40:55.359Z,93.89
2017-11-09T07:41:55.348Z,93.89
2017-11-09T07:42:55.020Z,93.7
2017-11-09T07:43:55.341Z,93.98
2017-11-09T07:44:55.317Z,94.17
2017-11-09T07:45:55.312Z,93.98
2017-11-09T07:46:55.300Z,93.98
2017-11-09T07:47:55.317Z,93.98
2017-11-09T07:48:55.279Z,93.98
2017-11-09T07:49:54.947Z,93.98
2017-11-09T07:50:55.263Z,93.98
2017-11-09T07:51:55.266Z,93.79
2017-11-09T07:52:55.244Z,93.79
2017-11-09T07:53:54.905Z,93.79
2017-11-09T07:54:55.224Z,93.32
2017-11-09T07:55:54.890Z,93.32
2017-11-09T07:56:55.203Z,93.22
2017-11-09T07:57:55.197Z,92.84
2017-11-09T07:58:55.188Z,93.03
2017-11-09T07:59:54.851Z,92.94
2017-11-09T08:00:55.174Z,92.65
2017-11-09T08:01:55.170Z,92.55
2017-11-09T08:02:54.822Z,93.03
2017-11-09T08:03:55.139Z,92.84
2017-11-09T08:04:55.138Z,93.03
2017-11-09T08:05:55.120Z,92.65
2017-11-09T08:06:55.114Z,92.55
2017-11-09T08:07:54.788Z,92.74
2017-11-09T08:08:55.113Z,92.65
2017-11-09T08:09:54.778Z,92.84
2017-11-09T08:10:55.086Z,92.69
2017-11-09T08:11:55.066Z,92.5
2017-11-09T08:12:55.051Z,92.18
2017-11-09T08:13:55.047Z,92.36
2017-11-09T08:14:55.037Z,92.18
2017-11-09T08:15:55.027Z,91.89
2017-11-09T08:16:55.048Z,92.08
2017-11-09T08:17:55.035Z,92.18
2017-11-09T08:18:55.018Z,92.08
2017-11-09T08:19:54.993Z,91.99
2017-11-09T08:20:54.657Z,91.99
2017-11-09T08:21:54.979Z,92.08
2017-11-09T08:22:54.964Z,91.74
2017-11-09T08:23:54.953Z,91.84
2017-11-09T08:24:54.945Z,91.74
2017-11-09T08:25:54.943Z,91.84
2017-11-09T08:26:54.925Z,92.13
2017-11-09T08:27:54.589Z,91.74
2017-11-09T08:28:54.915Z,91.74
2017-11-09T08:29:54.902Z,91.36
2017-11-09T08:30:54.890Z,91.94
2017-11-09T08:31:54.882Z,91.46
2017-11-09T08:32:54.871Z,92.13
2017-11-09T08:33:54.876Z,91.94
2017-11-09T08:34:54.867Z,91.84
2017-11-09T08:35:54.844Z,91.31
2017-11-09T08:36:55.085Z,91.41
2017-11-09T08:37:54.851Z,91.89
2017-11-09T08:38:54.838Z,91.74
2017-11-09T08:39:54.813Z,91.84
2017-11-09T08:40:54.817Z,91.74
2017-11-09T08:41:54.788Z,91.74
2017-11-09T08:42:54.472Z,91.74
2017-11-09T08:43:56.079Z,91.94
2017-11-09T08:44:55.121Z,91.55
2017-11-09T08:45:55.006Z,91.46
2017-11-09T08:46:54.788Z,91.46
2017-11-09T08:47:54.448Z,90.98
2017-11-09T08:48:54.724Z,91.55
2017-11-09T08:49:54.388Z,90.98
2017-11-09T08:50:54.738Z,91.27
2017-11-09T08:51:54.736Z,91.27
2017-11-09T08:52:54.389Z,91.31
2017-11-09T08:53:54.710Z,91.27
2017-11-09T08:54:54.367Z,91.08
2017-11-09T08:55:54.708Z,91.03
2017-11-09T08:56:54.688Z,90.93
2017-11-09T08:57:54.684Z,90.93
2017-11-09T08:58:54.690Z,91.13
2017-11-09T08:59:54.661Z,91.22
2017-11-09T09:00:54.655Z,90.74
2017-11-09T09:01:54.628Z,91.13
2017-11-09T09:02:54.627Z,90.93
2017-11-09T09:03:54.606Z,90.74
2017-11-09T09:04:54.584Z,90.84
2017-11-09T09:05:54.615Z,90.55
2017-11-09T09:06:54.603Z,90.84
2017-11-09T09:07:54.838Z,90.55
2017-11-09T09:08:54.578Z,90.84
2017-11-09T09:09:54.543Z,91.03
2017-11-09T09:10:54.540Z,90.55
2017-11-09T09:11:54.576Z,90.93
2017-11-09T09:12:54.547Z,91.13
2017-11-09T09:13:54.178Z,90.84
2017-11-09T09:14:54.501Z,91.22
2017-11-09T09:15:54.503Z,90.36
2017-11-09T09:16:54.507Z,90.26
2017-11-09T09:17:54.504Z,90.17
2017-11-09T09:18:54.495Z,89.79
2017-11-09T09:19:54.480Z,90.17
2017-11-09T09:20:54.485Z,90.17
2017-11-09T09:21:54.149Z,90.84
2017-11-09T09:22:54.126Z,91.13
2017-11-09T09:23:54.472Z,90.84
2017-11-09T09:24:54.324Z,91.03
2017-11-09T09:25:54.441Z,91.03
2017-11-09T09:26:54.398Z,91.03
2017-11-09T09:27:54.409Z,90.93
2017-11-09T09:28:54.419Z,90.84
2017-11-09T09:29:54.371Z,90.74
2017-11-09T09:30:54.637Z,90.93
2017-11-09T09:31:54.593Z,90.36
2017-11-09T09:32:54.235Z,90.17
2017-11-09T09:33:54.003Z,90.45
2017-11-09T09:34:54.367Z,89.89
2017-11-09T09:35:54.327Z,89.98
2017-11-09T09:36:54.304Z,90.17
2017-11-09T09:37:54.324Z,89.79
2017-11-09T09:38:54.555Z,90.17
2017-11-09T09:39:54.321Z,89.79
2017-11-09T09:40:54.292Z,90.17
2017-11-09T09:41:54.289Z,89.69
2017-11-09T09:42:54.268Z,90.55
2017-11-09T09:43:54.265Z,90.17
2017-11-09T09:44:54.247Z,89.98
2017-11-09T09:45:53.909Z,90.74
2017-11-09T09:46:53.925Z,90.36
2017-11-09T09:47:54.267Z,89.98
2017-11-09T09:48:53.886Z,89.89
2017-11-09T09:49:54.256Z,90.08
2017-11-09T09:50:54.273Z,89.98
2017-11-09T09:51:53.852Z,89.79
2017-11-09T09:52:53.903Z,90.17
2017-11-09T09:53:54.212Z,89.69
2017-11-09T09:54:53.904Z,89.31
2017-11-09T09:55:54.226Z,89.4
2017-11-09T09:56:54.213Z,88.93
2017-11-09T09:57:54.190Z,89.4
2017-11-09T09:58:54.152Z,89.6
2017-11-09T09:59:54.168Z,90.08
2017-11-09T10:00:54.136Z,90.08
2017-11-09T10:01:54.149Z,89.89
2017-11-09T10:02:53.760Z,90.17
2017-11-09T10:03:54.093Z,90.08
2017-11-09T10:04:54.074Z,89.79
2017-11-09T10:05:54.066Z,89.79
2017-11-09T10:06:54.047Z,90.08
2017-11-09T10:07:54.044Z,90.08
2017-11-09T10:08:54.056Z,89.69
2017-11-09T10:09:54.049Z,89.89
2017-11-09T10:10:54.048Z,89.69
2017-11-09T10:11:54.032Z,90.08
2017-11-09T10:12:54.015Z,90.17
2017-11-09T10:13:53.995Z,90.45
2017-11-09T10:14:53.980Z,89.69
2017-11-09T10:15:53.969Z,90.17
2017-11-09T10:16:53.963Z,89.89
2017-11-09T10:17:53.627Z,89.89
2017-11-09T10:18:53.945Z,89.79
2017-11-09T10:19:53.934Z,90.55
2017-11-09T10:20:53.937Z,90.36
2017-11-09T10:21:53.963Z,90.79
2017-11-09T10:22:53.935Z,90.74
2017-11-09T10:23:53.942Z,90.98
2017-11-09T10:24:53.956Z,91.27
2017-11-09T10:25:54.154Z,91.17
2017-11-09T10:26:54.139Z,90.89
2017-11-09T10:27:54.723Z,91.27
2017-11-09T10:28:53.582Z,90.79
2017-11-09T10:29:56.935Z,90.98
2017-11-09T10:30:54.304Z,90.98
2017-11-09T10:31:53.861Z,91.46
2017-11-09T10:32:54.693Z,90.98
2017-11-09T10:33:53.845Z,91.03
2017-11-09T10:35:00.356Z,91.03
2017-11-09T10:35:53.533Z,90.84
2017-11-09T10:36:55.344Z,90.41
2017-11-09T10:37:53.523Z,91.22
2017-11-09T10:38:55.472Z,90.79
2017-11-09T10:39:59.773Z,91.46
2017-11-09T10:41:01.606Z,90.98
2017-11-09T10:41:56.694Z,91.46
2017-11-09T10:42:54.016Z,91.65
2017-11-09T10:43:55.069Z,90.98
2017-11-09T10:44:54.385Z,91.27
2017-11-09T10:45:53.760Z,91.36
2017-11-09T10:46:54.585Z,91.55
2017-11-09T10:47:53.754Z,91.65
2017-11-09T10:48:57.385Z,92.03
2017-11-09T10:49:54.186Z,92.32
2017-11-09T10:50:53.395Z,92.22
2017-11-09T10:51:53.915Z,92.03
2017-11-09T10:52:53.716Z,92.13
2017-11-09T10:53:53.701Z,92.22
2017-11-09T10:54:53.694Z,92.22
2017-11-09T10:55:54.300Z,92.22
2017-11-09T10:56:53.701Z,92.41
2017-11-09T10:57:54.170Z,92.03
2017-11-09T10:59:00.160Z,92.03
2017-11-09T10:59:58.118Z,91.84
2017-11-09T11:01:06.039Z,92.13
2017-11-09T11:02:06.687Z,91.94
2017-11-09T11:02:53.820Z,92.5
2017-11-09T11:03:54.200Z,92.22
2017-11-09T11:04:54.001Z,92.13
2017-11-09T11:06:00.046Z,92.22
2017-11-09T11:06:53.789Z,92.22
2017-11-09T11:07:53.444Z,92.32
2017-11-09T11:08:53.566Z,92.13
2017-11-09T11:09:59.818Z,92.79
2017-11-09T11:10:53.778Z,91.74
2017-11-09T11:12:22.301Z,92.13
2017-11-09T11:12:56.588Z,92.22
2017-11-09T11:13:53.528Z,92.5
2017-11-09T11:14:53.741Z,92.03
2017-11-09T11:15:55.184Z,92.32
2017-11-09T11:16:53.511Z,92.32
2017-11-09T11:17:54.817Z,92.5
2017-11-09T11:18:53.486Z,92.13
2017-11-09T11:19:53.677Z,92.13
2017-11-09T11:20:53.473Z,92.13
2017-11-09T11:21:53.451Z,92.22
2017-11-09T11:22:54.392Z,92.32
2017-11-09T11:23:53.443Z,92.32
2017-11-09T11:24:53.468Z,92.32
2017-11-09T11:25:53.454Z,92.03
2017-11-09T11:26:54.008Z,91.84
2017-11-09T11:27:53.405Z,91.94
2017-11-09T11:28:53.616Z,92.03
2017-11-09T11:29:53.594Z,92.13
2017-11-09T11:30:53.573Z,91.84
2017-11-09T11:31:53.377Z,92.22
2017-11-09T11:32:53.013Z,92.41
2017-11-09T11:33:55.014Z,92.03
2017-11-09T11:34:56.035Z,92.79
2017-11-09T11:35:53.925Z,92.41
2017-11-09T11:36:53.731Z,92.32
2017-11-09T11:37:53.304Z,92.5
2017-11-09T11:38:54.707Z,92.5
2017-11-09T11:39:59.200Z,92.6
2017-11-09T11:40:53.139Z,92.5
2017-11-09T11:41:53.422Z,92.32
2017-11-09T11:42:54.628Z,92.41
2017-11-09T11:44:18.887Z,92.32
2017-11-09T11:44:53.461Z,91.94
2017-11-09T11:45:53.207Z,92.13
2017-11-09T11:46:53.215Z,92.13
2017-11-09T11:47:53.205Z,92.32
2017-11-09T11:48:55.905Z,92.13
2017-11-09T11:49:53.379Z,92.6
2017-11-09T11:50:53.368Z,92.41
2017-11-09T11:51:54.568Z,92.6
2017-11-09T11:52:53.128Z,92.5
2017-11-09T11:53:53.143Z,92.5
2017-11-09T11:54:59.050Z,91.94
2017-11-09T11:55:52.821Z,92.22
2017-11-09T11:56:52.967Z,92.5
2017-11-09T11:57:53.743Z,92.69
2017-11-09T11:58:53.090Z,92.69
2017-11-09T11:59:53.087Z,92.69
2017-11-09T12:00:53.094Z,92.69
2017-11-09T12:01:54.676Z,92.32
2017-11-09T12:02:53.046Z,92.5
2017-11-09T12:04:05.440Z,92.32
2017-11-09T12:04:53.842Z,92.03
2017-11-09T12:05:53.077Z,91.55
2017-11-09T12:06:52.675Z,92.32
2017-11-09T12:07:53.234Z,91.36
2017-11-09T12:08:53.585Z,91.55
2017-11-09T12:09:52.984Z,91.46
2017-11-09T12:10:53.610Z,91.94
2017-11-09T12:11:53.182Z,91.84
2017-11-09T12:12:52.846Z,91.74
2017-11-09T12:13:52.827Z,92.22
2017-11-09T12:14:53.384Z,92.22
2017-11-09T12:15:52.920Z,92.22
2017-11-09T12:16:53.112Z,92.03
2017-11-09T12:18:05.658Z,91.84
2017-11-09T12:18:54.923Z,92.13
2017-11-09T12:20:19.871Z,91.65
2017-11-09T12:21:02.873Z,91.27
2017-11-09T12:22:03.064Z,92.32
2017-11-09T12:23:09.552Z,91.94
2017-11-09T12:24:02.918Z,92.03
2017-11-09T12:25:05.889Z,91.94
2017-11-09T12:26:09.439Z,92.6
2017-11-09T12:27:47.143Z,92.46
2017-11-09T12:28:02.281Z,92.36
2017-11-09T12:29:05.310Z,92.84
2017-11-09T12:30:03.998Z,92.36
2017-11-09T12:31:15.519Z,92.46
2017-11-09T12:32:15.324Z,92.18
2017-11-09T12:35:02.260Z,92.84
2017-11-09T12:36:02.748Z,93.41
2017-11-09T12:37:07.618Z,93.41
2017-11-09T12:38:08.801Z,93.79
2017-11-09T12:39:02.705Z,93.89
2017-11-09T12:40:02.691Z,93.6
2017-11-09T12:41:05.518Z,93.41
2017-11-09T12:42:02.482Z,93.41
2017-11-09T12:43:02.482Z,93.51
2017-11-09T12:44:29.546Z,93.79
2017-11-09T12:45:03.061Z,93.6
2017-11-09T12:46:15.396Z,93.7
2017-11-09T12:47:15.172Z,93.98
2017-11-09T12:48:02.434Z,93.7
2017-11-09T12:49:02.425Z,93.79
2017-11-09T12:50:02.467Z,93.98
2017-11-09T12:51:02.406Z,93.89
2017-11-09T12:52:02.465Z,94.17
2017-11-09T12:53:02.665Z,94.27
2017-11-09T12:54:02.366Z,93.98
2017-11-09T12:55:02.396Z,93.79
2017-11-09T12:56:02.046Z,93.98
2017-11-09T12:57:02.340Z,93.7